createdAt,value
2022-09-13T00:01:42.237Z,5.25
2022-09-13T00:05:05.437Z,5.25
2022-09-13T00:08:28.354Z,5.35
2022-09-13T00:11:53.130Z,5.38
2022-09-13T00:15:16.580Z,4.57
2022-09-13T00:18:39.545Z,5.13
2022-09-13T00:22:02.447Z,4.85
2022-09-13T00:25:25.414Z,4.70
2022-09-13T00:28:52.635Z,4.57
2022-09-13T00:32:15.567Z,5.10
2022-09-13T00:35:38.487Z,4.25
2022-09-13T00:39:01.897Z,3.85
2022-09-13T00:42:26.682Z,4.50
2022-09-13T00:45:51.158Z,4.72
2022-09-13T00:49:18.211Z,4.45
2022-09-13T00:52:46.558Z,4.90
2022-09-13T00:56:14.112Z,4.95
2022-09-13T00:59:41.880Z,4.65
2022-09-13T01:03:11.498Z,5.47
2022-09-13T01:06:37.866Z,4.65
2022-09-13T01:10:01.461Z,5.22
2022-09-13T01:13:26.752Z,4.90
2022-09-13T01:16:49.903Z,5.63
2022-09-13T01:20:15.393Z,4.80
2022-09-13T01:23:56.665Z,4.32
2022-09-13T01:27:35.793Z,5.47
2022-09-13T01:31:08.269Z,4.90
2022-09-13T01:34:47.251Z,4.95
2022-09-13T01:38:23.286Z,4.78
2022-09-13T01:42:01.055Z,4.82
2022-09-13T01:45:36.739Z,5.45
2022-09-13T01:49:10.005Z,5.55
2022-09-13T01:52:41.002Z,4.90
2022-09-13T01:56:09.846Z,5.50
2022-09-13T01:59:43.413Z,4.40
2022-09-13T02:03:10.778Z,4.90
2022-09-13T02:06:41.420Z,4.28
2022-09-13T02:10:10.364Z,4.20
2022-09-13T02:13:38.235Z,5.30
2022-09-13T02:17:05.648Z,4.95
2022-09-13T02:20:31.688Z,5.07
2022-09-13T02:23:59.833Z,4.63
2022-09-13T02:27:25.873Z,4.43
2022-09-13T02:30:54.226Z,3.92
2022-09-13T02:34:20.113Z,4.72
2022-09-13T02:37:46.508Z,5.22
2022-09-13T02:41:17.380Z,4.65
2022-09-13T02:44:44.326Z,4.78
2022-09-13T02:48:12.708Z,4.70
2022-09-13T02:51:45.034Z,4.13
2022-09-13T02:55:17.241Z,4.32
2022-09-13T02:58:46.733Z,4.10
2022-09-13T03:02:13.925Z,3.95
2022-09-13T03:05:36.903Z,4.28
2022-09-13T03:09:04.792Z,4.35
2022-09-13T03:12:49.934Z,4.32
2022-09-13T03:16:29.082Z,4.60
2022-09-13T03:20:10.775Z,4.78
2022-09-13T03:23:46.532Z,4.43
2022-09-13T03:27:19.137Z,4.72
2022-09-13T03:30:48.917Z,3.75
2022-09-13T03:34:17.451Z,4.80
2022-09-13T03:37:49.354Z,5.28
2022-09-13T03:41:16.677Z,4.50
2022-09-13T03:44:42.203Z,4.28
2022-09-13T03:48:06.429Z,5.13
2022-09-13T03:51:31.109Z,4.93
2022-09-13T03:54:54.545Z,4.85
2022-09-13T03:58:20.733Z,4.75
2022-09-13T04:01:44.469Z,3.92
2022-09-13T04:05:07.931Z,4.72
2022-09-13T04:08:32.544Z,4.15
2022-09-13T04:11:55.395Z,4.60
2022-09-13T04:15:18.351Z,4.47
2022-09-13T04:18:41.197Z,4.78
2022-09-13T04:22:04.280Z,3.85
2022-09-13T04:25:28.800Z,4.82
2022-09-13T04:28:53.709Z,4.60
2022-09-13T04:32:16.578Z,4.78
2022-09-13T04:35:40.782Z,4.18
2022-09-13T04:39:04.063Z,4.20
2022-09-13T04:42:28.267Z,4.45
2022-09-13T04:45:51.819Z,4.57
2022-09-13T04:49:15.741Z,4.75
2022-09-13T04:52:38.642Z,6.13
2022-09-13T04:56:02.664Z,5.63
2022-09-13T04:59:27.828Z,5.85
2022-09-13T05:02:50.704Z,4.90
2022-09-13T05:06:15.190Z,4.80
2022-09-13T05:09:38.146Z,5.05
2022-09-13T05:13:01.277Z,4.85
2022-09-13T05:16:27.083Z,5.05
2022-09-13T05:19:50.162Z,4.18
2022-09-13T05:23:13.036Z,4.53
2022-09-13T05:26:36.456Z,4.35
2022-09-13T05:29:59.381Z,4.68
2022-09-13T05:33:23.837Z,4.45
2022-09-13T05:36:51.664Z,4.75
2022-09-13T05:40:16.884Z,4.70
2022-09-13T05:43:39.833Z,4.65
2022-09-13T05:47:02.769Z,4.75
2022-09-13T05:50:55.984Z,5.07
2022-09-13T05:54:13.498Z,3.92
2022-09-13T05:57:38.179Z,4.75
2022-09-13T06:01:01.106Z,3.90
2022-09-13T06:04:24.052Z,3.97
2022-09-13T06:07:48.309Z,4.53
2022-09-13T06:11:13.024Z,4.65
2022-09-13T06:14:35.913Z,3.95
2022-09-13T06:17:58.874Z,4.13
2022-09-13T06:21:28.281Z,4.32
2022-09-13T06:24:53.281Z,4.88
2022-09-13T06:28:16.161Z,4.13
2022-09-13T06:31:43.668Z,4.72
2022-09-13T06:35:07.772Z,4.25
2022-09-13T06:38:30.856Z,3.95
2022-09-13T06:41:55.109Z,5.70
2022-09-13T06:45:30.014Z,4.30
2022-09-13T06:48:53.081Z,5.00
2022-09-13T06:52:15.980Z,4.95
2022-09-13T06:55:38.869Z,4.20
2022-09-13T06:59:05.645Z,4.32
2022-09-13T07:02:28.648Z,4.20
2022-09-13T07:05:51.669Z,4.18
2022-09-13T07:09:17.944Z,5.30
2022-09-13T07:12:42.252Z,3.85
2022-09-13T07:16:09.245Z,4.60
2022-09-13T07:19:32.373Z,4.10
2022-09-13T07:22:55.261Z,3.40
2022-09-13T07:26:18.184Z,4.82
2022-09-13T07:29:41.150Z,4.65
2022-09-13T07:33:05.528Z,4.65
2022-09-13T07:36:30.226Z,4.57
2022-09-13T07:39:53.152Z,11.98
2022-09-13T07:43:16.394Z,7.82
2022-09-13T07:46:44.102Z,6.63
2022-09-13T07:50:09.232Z,6.38
2022-09-13T07:53:33.249Z,7.03
2022-09-13T07:56:56.234Z,5.25
2022-09-13T08:00:19.287Z,6.75
2022-09-13T08:03:42.388Z,5.90
2022-09-13T08:07:07.683Z,6.50
2022-09-13T08:10:30.614Z,6.53
2022-09-13T08:13:54.220Z,5.50
2022-09-13T08:17:17.273Z,5.07
2022-09-13T08:20:40.930Z,4.72
2022-09-13T08:24:06.714Z,5.85
2022-09-13T08:27:30.070Z,5.95
2022-09-13T08:30:53.044Z,5.55
2022-09-13T08:34:18.062Z,6.00
2022-09-13T08:37:41.040Z,5.38
2022-09-13T08:41:22.906Z,5.95
2022-09-13T08:44:48.964Z,4.97
2022-09-13T08:48:18.388Z,5.00
2022-09-13T08:51:47.202Z,5.07
2022-09-13T08:55:24.924Z,5.30
2022-09-13T08:59:12.292Z,4.32
2022-09-13T09:02:49.768Z,4.57
2022-09-13T09:06:17.766Z,4.47
2022-09-13T09:09:45.232Z,5.03
2022-09-13T09:13:13.888Z,5.53
2022-09-13T09:16:42.457Z,4.43
2022-09-13T09:20:17.746Z,4.45
2022-09-13T09:23:47.167Z,4.88
2022-09-13T09:27:15.425Z,4.90
2022-09-13T09:30:44.614Z,5.63
2022-09-13T09:34:18.529Z,4.70
2022-09-13T09:37:43.781Z,4.10
2022-09-13T09:41:13.904Z,5.10
2022-09-13T09:44:37.899Z,3.90
2022-09-13T09:48:06.597Z,4.68
2022-09-13T09:51:32.195Z,5.07
2022-09-13T09:55:03.793Z,4.50
2022-09-13T09:58:39.487Z,3.65
2022-09-13T10:02:07.807Z,4.38
2022-09-13T10:05:32.312Z,4.00
2022-09-13T10:09:01.356Z,4.22
2022-09-13T10:12:29.267Z,4.72
2022-09-13T10:15:58.111Z,4.18
2022-09-13T10:19:28.110Z,4.57
2022-09-13T10:23:21.094Z,4.47
2022-09-13T10:26:45.431Z,4.93
2022-09-13T10:30:33.817Z,4.13
2022-09-13T10:34:00.829Z,4.65
2022-09-13T10:37:30.703Z,5.00
2022-09-13T10:40:53.671Z,4.10
2022-09-13T10:44:29.542Z,4.25
2022-09-13T10:47:54.649Z,3.95
2022-09-13T10:51:37.898Z,4.50
2022-09-13T10:55:26.730Z,4.07
2022-09-13T10:58:49.810Z,4.30
2022-09-13T11:02:37.580Z,3.88
2022-09-13T11:06:10.838Z,3.95
2022-09-13T11:09:37.751Z,4.63
2022-09-13T11:13:07.379Z,3.65
2022-09-13T11:16:41.827Z,4.60
2022-09-13T11:20:21.724Z,3.35
2022-09-13T11:23:59.409Z,3.53
2022-09-13T11:27:30.990Z,3.10
2022-09-13T11:31:09.519Z,3.70
2022-09-13T11:34:49.322Z,3.63
2022-09-13T11:38:39.057Z,3.60
2022-09-13T11:42:10.630Z,3.50
2022-09-13T11:45:40.182Z,3.83
2022-09-13T11:49:27.120Z,3.42
2022-09-13T11:53:01.551Z,4.10
2022-09-13T11:56:32.227Z,3.60
2022-09-13T11:59:59.818Z,3.80
2022-09-13T12:03:31.532Z,3.72
2022-09-13T12:07:00.929Z,2.95
2022-09-13T12:10:28.643Z,3.30
2022-09-13T12:13:56.506Z,3.92
2022-09-13T12:17:27.956Z,3.47
2022-09-13T12:20:54.434Z,3.88
2022-09-13T12:24:21.040Z,3.58
2022-09-13T12:27:51.744Z,3.47
2022-09-13T12:31:20.431Z,3.50
2022-09-13T12:34:48.222Z,4.30
2022-09-13T12:39:00.532Z,3.85
2022-09-13T12:42:54.163Z,3.50
2022-09-13T12:46:42.531Z,3.28
2022-09-13T12:54:33.521Z,3.42
2022-09-13T12:58:04.802Z,3.40
2022-09-13T13:01:31.753Z,3.30
2022-09-13T13:04:58.660Z,3.75
2022-09-13T13:08:30.316Z,2.80
2022-09-13T13:11:54.494Z,3.17
2022-09-13T13:15:51.141Z,3.80
2022-09-13T13:23:15.597Z,2.90
2022-09-13T13:26:46.413Z,2.90
2022-09-13T13:30:56.298Z,4.03
2022-09-13T13:34:37.246Z,3.50
2022-09-13T13:41:57.021Z,2.95
2022-09-13T13:45:25.015Z,3.63
2022-09-13T13:52:37.282Z,3.63
2022-09-13T13:56:16.641Z,2.88
2022-09-13T13:59:40.936Z,3.08
2022-09-13T14:03:17.757Z,3.47
2022-09-13T14:06:49.952Z,3.67
2022-09-13T14:10:20.277Z,3.15
2022-09-13T14:13:59.393Z,2.53
2022-09-13T14:17:57.293Z,3.30
2022-09-13T14:21:24.269Z,3.33
2022-09-13T14:24:48.709Z,2.80
2022-09-13T14:28:17.536Z,3.33
2022-09-13T14:31:40.538Z,2.85
2022-09-13T14:35:14.769Z,2.83
2022-09-13T14:38:37.985Z,3.10
2022-09-13T14:42:02.833Z,2.92
2022-09-13T14:45:28.630Z,3.25
2022-09-13T14:48:55.804Z,3.15
2022-09-13T14:52:25.623Z,3.58
2022-09-13T14:55:52.430Z,2.70
2022-09-13T14:59:21.025Z,3.10
2022-09-13T15:02:49.633Z,3.17
2022-09-13T15:06:24.010Z,3.00
2022-09-13T15:09:48.418Z,2.78
2022-09-13T15:13:11.966Z,2.50
2022-09-13T15:16:34.936Z,3.20
2022-09-13T15:20:06.429Z,2.80
2022-09-13T15:23:33.669Z,7.30
2022-09-13T15:27:05.285Z,6.60
2022-09-13T15:30:30.198Z,5.85
2022-09-13T15:34:21.312Z,6.03
2022-09-13T15:37:44.358Z,5.97
2022-09-13T15:41:14.669Z,6.28
2022-09-13T15:44:42.529Z,6.18
2022-09-13T15:48:06.341Z,5.60
2022-09-13T15:51:30.355Z,5.85
2022-09-13T15:54:53.396Z,6.10
2022-09-13T15:58:16.626Z,5.25
2022-09-13T16:01:41.184Z,5.60
2022-09-13T16:05:04.630Z,5.22
2022-09-13T16:08:27.576Z,6.15
2022-09-13T16:11:52.181Z,6.47
2022-09-13T16:15:16.891Z,5.13
2022-09-13T16:18:41.342Z,6.03
2022-09-13T16:22:04.838Z,5.78
2022-09-13T16:25:28.243Z,5.10
2022-09-13T16:28:51.162Z,6.07
2022-09-13T16:32:14.479Z,4.75
2022-09-13T16:35:38.944Z,6.05
2022-09-13T16:39:02.305Z,6.20
2022-09-13T16:42:25.964Z,5.60
2022-09-13T16:45:50.347Z,5.60
2022-09-13T16:49:13.656Z,4.20
2022-09-13T16:52:38.292Z,5.72
2022-09-13T16:56:07.104Z,4.18
2022-09-13T16:59:30.275Z,4.72
2022-09-13T17:02:53.240Z,4.80
2022-09-13T17:06:18.366Z,4.53
2022-09-13T17:09:42.778Z,5.50
2022-09-13T17:13:05.686Z,5.32
2022-09-13T17:16:32.700Z,5.55
2022-09-13T17:19:55.728Z,6.07
2022-09-13T17:23:18.707Z,5.50
2022-09-13T17:26:44.102Z,5.07
2022-09-13T17:30:08.048Z,5.45
2022-09-13T17:33:30.951Z,5.45
2022-09-13T17:36:53.903Z,5.75
2022-09-13T17:40:17.471Z,5.10
2022-09-13T17:43:43.402Z,5.65
2022-09-13T17:47:06.713Z,5.00
2022-09-13T17:50:29.615Z,5.93
2022-09-13T17:53:54.022Z,5.28
2022-09-13T17:57:17.036Z,4.68
2022-09-13T18:00:41.346Z,4.82
2022-09-13T18:04:04.845Z,4.75
2022-09-13T18:07:27.760Z,4.72
2022-09-13T18:11:11.837Z,4.30
2022-09-13T18:14:33.716Z,5.25
2022-09-13T18:17:57.937Z,5.00
2022-09-13T18:21:22.520Z,4.78
2022-09-13T18:24:45.557Z,4.55
2022-09-13T18:28:08.460Z,4.88
2022-09-13T18:31:33.411Z,5.07
2022-09-13T18:34:58.473Z,4.47
2022-09-13T18:38:21.389Z,5.35
2022-09-13T18:41:45.210Z,5.50
2022-09-13T18:45:09.909Z,4.43
2022-09-13T18:48:35.240Z,5.55
2022-09-13T18:51:59.925Z,5.78
2022-09-13T18:55:22.819Z,6.13
2022-09-13T18:58:46.542Z,5.35
2022-09-13T19:02:11.067Z,4.18
2022-09-13T19:05:38.949Z,4.32
2022-09-13T19:09:03.990Z,6.13
2022-09-13T19:12:26.904Z,5.68
2022-09-13T19:15:50.244Z,5.75
2022-09-13T19:19:13.977Z,4.10
2022-09-13T19:22:37.308Z,4.22
2022-09-13T19:26:06.776Z,5.03
2022-09-13T19:29:30.169Z,4.95
2022-09-13T19:32:53.027Z,4.15
2022-09-13T19:36:17.638Z,4.03
2022-09-13T19:39:40.831Z,6.20
2022-09-13T19:43:05.194Z,5.28
2022-09-13T19:46:31.700Z,4.53
2022-09-13T19:49:54.852Z,4.28
2022-09-13T19:53:18.169Z,4.45
2022-09-13T19:56:42.749Z,5.25
2022-09-13T20:00:09.499Z,4.53
2022-09-13T20:03:32.880Z,4.30
2022-09-13T20:06:56.217Z,4.68
2022-09-13T20:10:19.498Z,4.82
2022-09-13T20:13:42.744Z,4.90
2022-09-13T20:17:07.266Z,4.03
2022-09-13T20:20:31.294Z,4.80
2022-09-13T20:23:56.151Z,4.60
2022-09-13T20:27:19.173Z,5.15
2022-09-13T20:30:42.710Z,3.97
2022-09-13T20:34:08.533Z,3.67
2022-09-13T20:37:31.399Z,4.63
2022-09-13T20:40:54.286Z,3.55
2022-09-13T20:44:17.199Z,4.50
2022-09-13T20:47:40.128Z,4.25
2022-09-13T20:51:06.434Z,4.45
2022-09-13T20:54:29.294Z,3.70
2022-09-13T20:57:52.481Z,4.65
2022-09-13T21:01:19.866Z,4.55
2022-09-13T21:04:43.173Z,4.50
2022-09-13T21:08:24.724Z,3.60
2022-09-13T21:11:48.504Z,4.18
2022-09-13T21:15:11.984Z,4.60
2022-09-13T21:18:35.480Z,3.63
2022-09-13T21:21:58.347Z,3.42
2022-09-13T21:25:22.572Z,4.10
2022-09-13T21:28:45.906Z,3.97
2022-09-13T21:32:08.857Z,3.63
2022-09-13T21:35:31.871Z,3.47
2022-09-13T21:38:55.930Z,3.70
2022-09-13T21:42:20.241Z,3.20
2022-09-13T21:45:43.138Z,3.25
2022-09-13T21:49:07.426Z,3.10
2022-09-13T21:52:30.291Z,3.42
2022-09-13T21:55:53.194Z,2.72
2022-09-13T21:59:19.222Z,3.42
2022-09-13T22:02:43.304Z,2.95
2022-09-13T22:06:07.568Z,2.90
2022-09-13T22:09:30.544Z,3.05
2022-09-13T22:12:53.453Z,3.38
2022-09-13T22:16:21.493Z,2.80
2022-09-13T22:19:44.473Z,2.88
2022-09-13T22:23:07.333Z,2.85
2022-09-13T22:26:39.374Z,2.90
2022-09-13T22:30:02.279Z,3.08
2022-09-13T22:33:26.522Z,2.65
2022-09-13T22:36:49.441Z,2.78
2022-09-13T22:40:12.519Z,3.28
2022-09-13T22:43:35.897Z,2.60
2022-09-13T22:47:00.322Z,2.50
2022-09-13T22:50:24.577Z,3.10
2022-09-13T22:53:49.004Z,2.53
2022-09-13T22:57:11.885Z,2.70
2022-09-13T23:00:34.780Z,2.50
2022-09-13T23:03:58.313Z,2.60
2022-09-13T23:07:22.558Z,3.08
2022-09-13T23:10:45.474Z,3.15
2022-09-13T23:14:11.112Z,2.42
2022-09-13T23:17:34.029Z,2.65
2022-09-13T23:20:57.482Z,2.17
2022-09-13T23:24:22.124Z,2.42
2022-09-13T23:27:45.112Z,2.28
2022-09-13T23:31:09.991Z,2.03
2022-09-13T23:34:32.874Z,2.13
2022-09-13T23:37:55.719Z,2.25
2022-09-13T23:41:20.497Z,2.05
2022-09-13T23:44:43.352Z,3.03
2022-09-13T23:48:06.265Z,2.33
2022-09-13T23:51:29.248Z,2.55
2022-09-13T23:54:52.287Z,2.90
2022-09-13T23:58:16.551Z,2.78
